createdAt,value
2018-02-22T07:09:00.536Z,6.43
2018-02-22T07:11:39.638Z,5.90
2018-02-22T07:14:14.680Z,5.90
2018-02-22T07:16:42.915Z,6.00
2018-02-22T07:19:20.095Z,14.27
2018-02-22T07:21:48.155Z,14.90
2018-02-22T07:24:34.022Z,10.60
2018-02-22T07:27:03.953Z,7.70
2018-02-22T07:29:41.862Z,7.53
2018-02-22T07:32:10.518Z,7.87
2018-02-22T07:34:38.956Z,7.20
2018-02-22T07:37:07.606Z,6.83
2018-02-22T07:39:35.991Z,7.40
2018-02-22T07:42:04.253Z,7.43
2018-02-22T07:44:32.539Z,7.17
2018-02-22T07:47:00.813Z,7.17
2018-02-22T07:49:28.951Z,7.53
2018-02-22T07:51:57.222Z,7.13
2018-02-22T07:54:25.522Z,7.30
2018-02-22T07:56:53.896Z,6.77
2018-02-22T07:59:22.794Z,7.17
2018-02-22T08:01:52.114Z,7.60
2018-02-22T08:04:20.669Z,7.27
2018-02-22T08:06:48.846Z,7.33
2018-02-22T08:09:18.228Z,7.03
2018-02-22T08:11:46.667Z,7.17
2018-02-22T08:14:15.078Z,7.37
2018-02-22T08:16:44.189Z,7.47
2018-02-22T08:19:13.080Z,7.87
2018-02-22T08:21:41.192Z,8.10
2018-02-22T08:24:09.220Z,7.53
2018-02-22T08:26:39.024Z,8.30
2018-02-22T08:29:06.928Z,8.30
2018-02-22T08:31:44.196Z,8.37
2018-02-22T08:34:12.530Z,8.33
2018-02-22T08:36:49.228Z,8.37
2018-02-22T08:39:18.139Z,8.70
2018-02-22T08:41:46.174Z,8.40
2018-02-22T08:44:14.818Z,8.50
2018-02-22T08:46:43.238Z,8.20
2018-02-22T08:49:11.967Z,8.57
2018-02-22T08:51:40.275Z,8.97
2018-02-22T08:54:09.069Z,8.53
2018-02-22T08:56:37.236Z,8.80
2018-02-22T08:59:05.430Z,9.10
2018-02-22T09:01:35.407Z,8.40
2018-02-22T09:04:03.621Z,9.00
2018-02-22T09:06:32.023Z,9.13
2018-02-22T09:09:00.506Z,9.03
2018-02-22T09:11:28.996Z,9.40
2018-02-22T09:13:57.384Z,9.23
2018-02-22T09:16:25.512Z,9.17
2018-02-22T09:18:54.396Z,9.40
2018-02-22T09:21:23.855Z,9.73
2018-02-22T09:23:52.018Z,9.70
2018-02-22T09:26:19.995Z,9.60
2018-02-22T09:28:49.997Z,9.63
2018-02-22T09:31:18.398Z,9.77
2018-02-22T09:33:46.536Z,9.83
2018-02-22T09:36:14.737Z,9.97
2018-02-22T09:38:50.836Z,9.77
2018-02-22T09:41:19.117Z,9.70
2018-02-22T09:43:47.003Z,9.57
2018-02-22T09:46:15.298Z,10.30
2018-02-22T09:48:44.354Z,9.60
2018-02-22T09:51:12.556Z,10.00
2018-02-22T09:53:40.676Z,9.80
2018-02-22T09:56:08.770Z,10.37
2018-02-22T09:58:36.910Z,10.07
2018-02-22T10:01:05.306Z,9.87
2018-02-22T10:03:34.407Z,9.60
2018-02-22T10:06:03.956Z,10.67
2018-02-22T10:08:32.038Z,9.80
2018-02-22T10:11:00.509Z,10.00
2018-02-22T10:13:28.981Z,10.57
2018-02-22T10:15:57.006Z,10.57
2018-02-22T10:18:25.466Z,10.23
2018-02-22T10:20:53.626Z,10.67
2018-02-22T10:23:21.829Z,10.70
2018-02-22T10:25:50.929Z,11.10
2018-02-22T10:28:19.286Z,11.00
2018-02-22T10:30:47.711Z,11.60
2018-02-22T10:33:15.935Z,10.47
2018-02-22T10:35:44.047Z,10.80
2018-02-22T10:38:12.592Z,10.93
2018-02-22T10:43:20.785Z,10.60
2018-02-22T10:45:49.844Z,11.03
2018-02-22T10:48:19.242Z,11.33
2018-02-22T10:50:47.483Z,11.33
2018-02-22T10:53:16.178Z,11.37
2018-02-22T10:55:44.451Z,11.73
2018-02-22T10:58:12.921Z,10.77
2018-02-22T11:00:41.060Z,10.53
2018-02-22T11:03:10.320Z,11.67
2018-02-22T11:05:38.685Z,11.53
2018-02-22T11:08:06.969Z,11.37
2018-02-22T11:10:35.022Z,10.97
2018-02-22T11:13:03.804Z,11.97
2018-02-22T11:15:32.173Z,12.17
2018-02-22T11:18:00.655Z,11.37
2018-02-22T11:20:29.210Z,11.73
2018-02-22T11:22:57.478Z,12.17
2018-02-22T11:25:26.187Z,11.60
2018-02-22T11:27:54.339Z,11.73
2018-02-22T11:30:23.148Z,12.00
2018-02-22T11:32:51.637Z,11.30
2018-02-22T11:35:19.808Z,12.00
2018-02-22T11:37:48.069Z,12.57
2018-02-22T11:40:16.364Z,11.53
2018-02-22T11:42:51.324Z,12.30
2018-02-22T11:45:19.727Z,12.00
2018-02-22T11:47:47.874Z,11.93
2018-02-22T11:50:16.402Z,11.00
2018-02-22T11:52:45.563Z,11.30
2018-02-22T11:55:14.295Z,12.07
2018-02-22T11:57:42.618Z,11.80
2018-02-22T12:00:11.032Z,11.23
2018-02-22T12:02:39.441Z,10.87
2018-02-22T12:05:07.642Z,10.63
2018-02-22T12:07:35.802Z,10.70
2018-02-22T12:10:04.260Z,11.57
2018-02-22T12:12:33.080Z,11.50
2018-02-22T12:15:01.122Z,11.53
2018-02-22T12:17:29.096Z,12.03
2018-02-22T12:19:57.329Z,11.37
2018-02-22T12:22:25.221Z,12.03
2018-02-22T12:24:53.141Z,11.83
2018-02-22T12:27:21.439Z,12.10
2018-02-22T12:29:49.421Z,12.63
2018-02-22T12:32:17.491Z,12.37
2018-02-22T12:34:46.246Z,12.27
2018-02-22T12:37:15.397Z,12.27
2018-02-22T12:39:43.740Z,12.53
2018-02-22T12:42:12.185Z,12.80
2018-02-22T12:44:49.574Z,12.50
2018-02-22T12:47:18.345Z,12.77
2018-02-22T12:49:47.121Z,13.30
2018-02-22T12:52:16.445Z,13.20
2018-02-22T12:54:44.604Z,13.67
2018-02-22T12:57:12.465Z,13.77
2018-02-22T12:59:40.404Z,13.80
2018-02-22T13:02:09.485Z,14.10
2018-02-22T13:04:38.504Z,15.27
2018-02-22T13:07:06.904Z,14.00
2018-02-22T13:09:35.344Z,14.93
2018-02-22T13:12:04.373Z,13.03
2018-02-22T13:14:32.305Z,15.10
2018-02-22T13:17:01.244Z,16.40
2018-02-22T13:19:29.868Z,16.60
2018-02-22T13:21:57.929Z,17.33
2018-02-22T13:24:26.255Z,17.87
2018-02-22T13:26:54.682Z,15.80
2018-02-22T13:29:22.635Z,15.47
2018-02-22T13:31:51.027Z,17.07
2018-02-22T13:34:19.187Z,17.17
2018-02-22T13:36:47.166Z,17.73
2018-02-22T13:39:15.287Z,16.03
2018-02-22T13:41:43.503Z,16.47
2018-02-22T13:44:11.823Z,16.77
2018-02-22T13:46:42.244Z,16.53
2018-02-22T13:49:10.363Z,16.70
2018-02-22T13:51:38.725Z,16.97
2018-02-22T13:54:06.906Z,15.60
2018-02-22T13:56:34.850Z,16.03
2018-02-22T13:59:02.813Z,16.23
2018-02-22T14:01:31.147Z,17.03
2018-02-22T14:03:59.228Z,17.07
2018-02-22T14:06:28.105Z,15.73
2018-02-22T14:08:55.970Z,16.30
2018-02-22T14:11:23.783Z,15.87
2018-02-22T14:13:51.951Z,15.20
2018-02-22T14:16:20.050Z,16.33
2018-02-22T14:18:48.336Z,16.10
2018-02-22T14:21:16.633Z,15.47
2018-02-22T14:23:45.031Z,15.50
2018-02-22T14:26:13.178Z,15.37
2018-02-22T14:28:41.550Z,15.93
2018-02-22T14:31:09.512Z,14.80
2018-02-22T14:33:37.902Z,15.83
2018-02-22T14:36:07.000Z,16.63
2018-02-22T14:38:34.998Z,15.37
2018-02-22T14:41:03.348Z,14.53
2018-02-22T14:46:10.317Z,16.40
2018-02-22T14:48:38.625Z,15.67
2018-02-22T14:51:07.159Z,16.20
2018-02-22T14:53:35.133Z,16.17
2018-02-22T14:56:02.941Z,15.13
2018-02-22T14:58:31.253Z,15.40
2018-02-22T15:00:59.312Z,15.53
2018-02-22T15:03:27.512Z,15.30
2018-02-22T15:05:55.497Z,15.57
2018-02-22T15:08:23.674Z,14.80
2018-02-22T15:10:52.025Z,16.20
2018-02-22T15:13:20.461Z,15.30
2018-02-22T15:15:48.341Z,14.97
2018-02-22T15:18:16.260Z,14.83
2018-02-22T15:20:44.898Z,14.67
2018-02-22T15:23:12.765Z,15.23
2018-02-22T15:25:42.049Z,14.07
2018-02-22T15:28:09.964Z,14.57
2018-02-22T15:30:38.235Z,15.20
2018-02-22T15:33:06.512Z,13.90
2018-02-22T15:35:40.675Z,14.80
2018-02-22T15:38:09.714Z,14.93
2018-02-22T15:40:37.894Z,14.23
2018-02-22T15:43:05.873Z,14.10
2018-02-22T15:45:33.752Z,14.23
2018-02-22T15:48:01.953Z,13.33
2018-02-22T15:50:30.534Z,14.50
2018-02-22T15:52:58.833Z,13.70
2018-02-22T15:55:26.873Z,13.33
2018-02-22T15:57:54.941Z,12.90
2018-02-22T16:00:22.882Z,13.33
2018-02-22T16:02:50.932Z,13.17
